Time;durP1;ratioP1;P1;durP2;ratioP2;P2;SDS_P1;SDS_P2;PMS_P1;PMS_P2;Temp;Humidity;BMP_temperature;BMP_pressure;BME280_temperature;BME280_humidity;BME280_pressure;Samples;Min_cycle;Max_cycle;Signal;HPM_P1;HPM_P2
2022/12/15 00:39:11;;;;;;;10.73;6.45;;;-1.30;99.90;;;;;;5006021;28;20466;-78
2022/12/15 00:41:37;;;;;;;11.68;5.85;;;-1.50;99.90;;;;;;5009537;28;20501;-79
2022/12/15 00:44:03;;;;;;;8.40;4.33;;;-1.50;99.90;;;;;;5008819;28;20433;-79
2022/12/15 01:22:06;;;;;;;8.00;3.38;;;-2.00;99.90;;;;;;4996589;28;20459;-78
2022/12/15 01:24:32;;;;;;;8.13;4.10;;;-1.90;99.90;;;;;;5007233;28;20439;-77
2022/12/15 01:26:57;;;;;;;8.05;3.83;;;-1.70;99.90;;;;;;5003095;28;20425;-76
2022/12/15 01:29:24;;;;;;;6.80;3.70;;;-1.70;99.90;;;;;;5010090;28;20523;-78
2022/12/15 01:31:50;;;;;;;6.88;3.70;;;-1.80;99.90;;;;;;5005423;28;20428;-79
2022/12/15 01:34:16;;;;;;;6.78;3.90;;;-1.70;99.90;;;;;;5008252;28;20438;-78
2022/12/15 01:36:41;;;;;;;6.35;3.83;;;-1.80;99.90;;;;;;5007394;28;20527;-79
2022/12/15 01:39:07;;;;;;;9.50;4.82;;;-1.70;99.90;;;;;;5009861;28;21283;-78
2022/12/15 01:41:33;;;;;;;9.52;5.72;;;-1.80;99.90;;;;;;5009933;28;20753;-76
2022/12/15 01:44:23;;;;;;;11.13;5.60;;;-2.00;99.90;;;;;;5009173;28;20468;-77
2022/12/15 01:46:53;;;;;;;12.48;5.78;;;-1.90;99.90;;;;;;4994142;28;20481;-77
2022/12/15 01:49:28;;;;;;;8.00;4.82;;;-1.80;99.90;;;;;;5009645;28;20458;-76
2022/12/15 01:52:00;;;;;;;10.00;5.53;;;-2.10;99.90;;;;;;5009964;28;20421;-78
2022/12/15 01:54:36;;;;;;;9.27;4.40;;;-1.90;99.90;;;;;;5008602;28;20449;-78
2022/12/15 01:57:07;;;;;;;9.73;4.38;;;-1.80;99.90;;;;;;4995641;28;20841;-78
2022/12/15 01:59:39;;;;;;;7.68;2.85;;;-1.80;99.90;;;;;;5008513;28;20462;-77
2022/12/15 02:02:06;;;;;;;6.30;2.95;;;-1.70;99.90;;;;;;4992578;28;20469;-77
2022/12/15 02:04:33;;;;;;;5.60;2.22;;;-1.80;99.90;;;;;;5007624;28;20479;-83
2022/12/15 02:06:58;;;;;;;6.20;2.22;;;-1.80;99.90;;;;;;5011229;28;20923;-82
2022/12/15 02:09:26;;;;;;;9.20;2.90;;;-1.40;99.90;;;;;;5062441;22;20451;-76
2022/12/15 02:12:08;;;;;;;5.22;1.90;;;-1.60;99.90;;;;;;5020515;28;20434;-76
2022/12/15 02:14:55;;;;;;;5.78;2.15;;;-1.60;99.90;;;;;;5033558;28;20544;-76
2022/12/15 02:17:55;;;;;;;7.45;2.40;;;-1.80;99.90;;;;;;5046452;28;20951;-77
2022/12/15 02:21:05;;;;;;;4.85;1.73;;;-1.40;99.90;;;;;;5050490;28;20770;-75
2022/12/15 02:23:49;;;;;;;5.68;1.80;;;-1.40;99.90;;;;;;4996289;28;20552;-76
2022/12/15 02:26:38;;;;;;;4.70;1.33;;;-1.40;99.90;;;;;;5045379;28;20448;-76
2022/12/15 02:29:31;;;;;;;4.78;1.55;;;-1.40;99.90;;;;;;5022116;28;20440;-77
2022/12/15 02:32:15;;;;;;;5.25;2.25;;;-1.70;99.90;;;;;;5013240;28;20520;-77
2022/12/15 02:34:52;;;;;;;9.30;1.93;;;-1.60;99.90;;;;;;5027684;28;22171;-77
2022/12/15 02:37:27;;;;;;;6.82;1.45;;;-1.40;99.90;;;;;;5050425;28;20436;-77
2022/12/15 02:39:53;;;;;;;6.60;1.60;;;-1.60;99.90;;;;;;5051366;28;20432;-77
2022/12/15 02:42:19;;;;;;;5.95;1.45;;;-1.40;99.90;;;;;;5051356;28;20413;-78
2022/12/15 02:44:51;;;;;;;4.45;1.40;;;-1.50;99.90;;;;;;5051224;28;20429;-77
2022/12/15 02:47:31;;;;;;;4.83;1.53;;;-1.40;99.90;;;;;;5047782;28;20553;-77
2022/12/15 02:50:15;;;;;;;5.07;2.07;;;-1.40;99.90;;;;;;5051361;28;20469;-77
2022/12/15 02:53:05;;;;;;;9.93;1.73;;;-1.40;99.90;;;;;;5034463;28;20556;-78
2022/12/15 02:55:49;;;;;;;6.10;2.00;;;-1.50;99.90;;;;;;5043483;28;20445;-75
2022/12/15 02:58:25;;;;;;;5.70;1.50;;;-1.80;99.90;;;;;;5030219;28;20464;-76
2022/12/15 03:00:57;;;;;;;6.70;1.65;;;-1.80;99.90;;;;;;5049632;28;20486;-76
2022/12/15 03:03:25;;;;;;;5.70;1.52;;;-1.50;99.90;;;;;;5040275;28;20439;-76
2022/12/15 03:05:56;;;;;;;6.63;2.00;;;-1.80;99.90;;;;;;5024632;28;20449;-76
2022/12/15 03:08:22;;;;;;;5.18;1.45;;;-1.80;99.90;;;;;;5037411;28;20871;-76
2022/12/15 03:10:51;;;;;;;6.75;1.23;;;-1.90;99.90;;;;;;5050083;28;20437;-76
2022/12/15 03:13:17;;;;;;;5.15;1.80;;;-1.70;99.90;;;;;;5050275;28;20462;-77
2022/12/15 03:15:43;;;;;;;6.53;2.30;;;-1.70;99.90;;;;;;5045726;28;20953;-76
2022/12/15 03:18:08;;;;;;;6.47;1.67;;;-1.60;99.90;;;;;;5031942;28;20429;-76
2022/12/15 03:20:34;;;;;;;4.33;1.90;;;-1.50;99.90;;;;;;5012555;28;20423;-76
2022/12/15 03:23:00;;;;;;;2.97;1.30;;;-1.80;99.90;;;;;;5031592;28;20446;-75
2022/12/15 03:25:26;;;;;;;5.72;2.00;;;-1.60;99.90;;;;;;5046974;28;20446;-76
2022/12/15 03:27:52;;;;;;;4.68;1.38;;;-1.60;99.90;;;;;;5043707;28;20421;-76
2022/12/15 03:30:18;;;;;;;5.05;1.85;;;-1.60;99.90;;;;;;5044468;28;20483;-76
2022/12/15 03:32:44;;;;;;;4.88;1.83;;;-1.90;99.90;;;;;;5051110;28;20492;-76
2022/12/15 03:35:09;;;;;;;3.80;1.73;;;-1.50;99.90;;;;;;5048800;28;20425;-77
2022/12/15 03:37:35;;;;;;;6.00;2.53;;;-1.70;99.90;;;;;;5032694;28;20421;-76
2022/12/15 03:40:00;;;;;;;6.67;2.23;;;-1.50;99.90;;;;;;5032376;28;20425;-77
2022/12/15 03:45:10;;;;;;;5.00;1.60;;;-1.30;99.90;;;;;;5031022;28;20441;-78
2022/12/15 03:47:40;;;;;;;7.33;2.73;;;-1.20;99.90;;;;;;5032436;28;20432;-77
2022/12/15 03:50:06;;;;;;;7.68;2.17;;;-1.10;99.90;;;;;;5050153;28;20469;-78
2022/12/15 03:52:32;;;;;;;8.95;3.10;;;-1.30;99.90;;;;;;5031870;28;20417;-77
2022/12/15 03:54:58;;;;;;;7.67;2.20;;;-1.30;99.90;;;;;;5050368;28;20425;-77
2022/12/15 03:57:23;;;;;;;5.90;2.37;;;-1.10;99.90;;;;;;5032524;28;20828;-77
2022/12/15 03:59:49;;;;;;;9.67;2.70;;;-1.10;99.90;;;;;;5034951;28;20475;-77
2022/12/15 04:02:15;;;;;;;7.97;2.25;;;-1.10;99.90;;;;;;5013243;28;20421;-78
2022/12/15 04:04:41;;;;;;;7.75;3.00;;;-1.00;99.90;;;;;;5050076;28;20482;-77
2022/12/15 04:07:08;;;;;;;8.37;2.43;;;-1.10;99.90;;;;;;5032244;28;20422;-77
2022/12/15 04:09:34;;;;;;;8.18;2.50;;;-1.40;99.90;;;;;;5049738;28;20441;-77
2022/12/15 04:12:02;;;;;;;5.60;2.57;;;-1.30;99.90;;;;;;5031853;28;20508;-78
2022/12/15 04:14:28;;;;;;;6.37;2.30;;;-1.50;99.90;;;;;;5031878;28;20437;-78
2022/12/15 04:16:55;;;;;;;4.45;2.10;;;-1.20;99.90;;;;;;5008025;28;20442;-76
2022/12/15 04:22:05;;;;;;;9.82;2.97;;;-1.40;99.90;;;;;;5031166;28;20861;-76
2022/12/15 05:33:01;;;;;;;6.55;2.58;;;-2.00;99.90;;;;;;5031060;28;20863;-78
2022/12/15 05:35:27;;;;;;;7.78;3.15;;;-1.50;99.90;;;;;;5030158;28;20430;-76
2022/12/15 05:37:53;;;;;;;7.03;3.10;;;-1.80;99.90;;;;;;5028646;28;20533;-77
2022/12/15 05:40:18;;;;;;;9.67;3.47;;;-1.90;99.90;;;;;;5049277;28;20421;-77
2022/12/15 05:42:44;;;;;;;11.60;4.60;;;-1.80;99.90;;;;;;5050205;28;20516;-77
2022/12/15 05:45:10;;;;;;;8.50;5.60;;;-1.60;99.90;;;;;;5048489;28;21074;-78
2022/12/15 05:47:35;;;;;;;9.85;3.75;;;-1.30;99.90;;;;;;5030267;28;20760;-78
2022/12/15 05:50:01;;;;;;;5.93;3.03;;;-1.60;99.90;;;;;;5030675;28;20429;-77
2022/12/15 05:52:26;;;;;;;9.98;3.72;;;-1.70;99.90;;;;;;5041898;28;20417;-77
2022/12/15 05:54:52;;;;;;;11.85;4.35;;;-1.60;99.90;;;;;;5029514;28;20465;-78
2022/12/15 05:57:18;;;;;;;9.63;3.30;;;-1.50;99.90;;;;;;5029083;28;20399;-78
2022/12/15 05:59:43;;;;;;;7.80;3.90;;;-1.30;99.90;;;;;;5048129;28;20764;-78
2022/12/15 06:02:09;;;;;;;9.40;3.63;;;-1.40;99.90;;;;;;5040790;28;20890;-77
2022/12/15 06:04:35;;;;;;;10.73;5.43;;;-1.40;99.90;;;;;;5045350;28;20508;-77
2022/12/15 06:07:00;;;;;;;8.60;4.43;;;-1.40;99.90;;;;;;5039224;28;20445;-77
2022/12/15 06:09:26;;;;;;;10.18;5.18;;;-1.30;99.90;;;;;;5047356;28;20476;-77
2022/12/15 06:11:52;;;;;;;7.50;5.07;;;-1.10;99.90;;;;;;5047404;28;20891;-77
2022/12/15 06:14:17;;;;;;;14.25;4.95;;;-1.40;99.90;;;;;;5043185;28;20432;-77
2022/12/15 06:16:43;;;;;;;10.27;4.88;;;-1.10;99.90;;;;;;5047465;28;20417;-76
2022/12/15 06:19:09;;;;;;;9.27;5.63;;;-1.00;99.90;;;;;;5046985;28;20878;-77
2022/12/15 06:21:35;;;;;;;9.10;4.65;;;-1.10;99.90;;;;;;5046733;28;20504;-77
2022/12/15 06:24:03;;;;;;;10.30;5.13;;;-1.30;99.90;;;;;;5047333;28;20437;-77
2022/12/15 06:26:31;;;;;;;8.60;5.50;;;-1.00;99.90;;;;;;5038815;28;20421;-76
2022/12/15 06:29:01;;;;;;;10.17;5.17;;;-1.10;99.90;;;;;;5029786;28;20464;-76
2022/12/15 06:31:27;;;;;;;8.35;5.80;;;-1.20;99.90;;;;;;5045486;28;20450;-77
2022/12/15 06:33:54;;;;;;;10.57;6.95;;;-1.00;99.90;;;;;;5036960;28;20756;-76
2022/12/15 06:36:22;;;;;;;13.52;7.95;;;-0.90;99.90;;;;;;5030024;28;20421;-77
2022/12/15 06:38:49;;;;;;;11.32;6.70;;;-0.90;99.90;;;;;;5045503;28;20474;-76
2022/12/15 06:41:18;;;;;;;12.73;7.65;;;-1.20;99.90;;;;;;5047631;28;20424;-76
2022/12/15 06:43:49;;;;;;;16.17;8.80;;;-1.20;99.90;;;;;;5026342;28;20468;-76
2022/12/15 06:46:15;;;;;;;11.90;7.32;;;-1.00;99.90;;;;;;5037192;28;20475;-76
2022/12/15 06:48:43;;;;;;;10.80;7.13;;;-1.10;99.90;;;;;;5047069;28;20470;-76
2022/12/15 06:51:10;;;;;;;12.18;6.72;;;-1.00;99.90;;;;;;5029877;28;20425;-76
2022/12/15 06:53:37;;;;;;;11.38;6.30;;;-0.80;99.90;;;;;;5041034;28;20784;-76
2022/12/15 06:56:06;;;;;;;12.48;5.82;;;-0.90;99.90;;;;;;5027439;28;20465;-76
2022/12/15 06:58:32;;;;;;;9.63;6.32;;;-0.80;99.90;;;;;;5046616;28;20496;-76
2022/12/15 07:00:58;;;;;;;12.93;5.75;;;-0.90;99.90;;;;;;5044532;28;20499;-76
2022/12/15 07:03:24;;;;;;;12.07;6.63;;;-0.90;99.90;;;;;;5046771;28;20425;-76
2022/12/15 07:06:03;;;;;;;11.77;6.93;;;-1.10;99.90;;;;;;5029087;28;20846;-76
2022/12/15 07:08:30;;;;;;;12.60;6.93;;;-1.10;99.90;;;;;;5031532;28;20466;-76
2022/12/15 07:10:55;;;;;;;15.35;8.02;;;-1.10;99.90;;;;;;5046147;28;20425;-76
2022/12/15 07:13:21;;;;;;;16.17;7.60;;;-1.20;99.90;;;;;;5030686;28;20903;-76
2022/12/15 07:15:48;;;;;;;14.70;6.93;;;-0.90;99.90;;;;;;5050009;28;20433;-76
2022/12/15 07:18:15;;;;;;;12.90;6.43;;;-1.20;99.90;;;;;;5049737;28;20795;-76
2022/12/15 07:20:41;;;;;;;10.70;7.10;;;-0.80;99.90;;;;;;5050326;28;20435;-76
2022/12/15 07:23:08;;;;;;;15.77;8.20;;;-0.80;99.90;;;;;;5031953;28;20425;-74
2022/12/15 07:25:38;;;;;;;11.38;6.28;;;-1.00;99.90;;;;;;5048313;28;20516;-76
2022/12/15 07:28:05;;;;;;;9.50;6.13;;;-0.80;99.90;;;;;;5048444;28;20450;-75
2022/12/15 07:30:31;;;;;;;9.13;5.55;;;-0.80;99.90;;;;;;5048406;28;20440;-75
2022/12/15 07:32:58;;;;;;;15.02;6.20;;;-0.80;99.90;;;;;;5015864;28;20438;-76
2022/12/15 07:35:23;;;;;;;14.35;6.53;;;-0.60;99.90;;;;;;5015228;28;20448;-75
2022/12/15 07:37:49;;;;;;;9.40;5.93;;;-0.70;99.90;;;;;;5027963;28;20421;-74
2022/12/15 07:40:15;;;;;;;11.10;6.05;;;-0.50;99.90;;;;;;5050005;28;20911;-75
2022/12/15 07:42:41;;;;;;;13.18;6.20;;;-0.50;99.90;;;;;;5031372;28;20425;-74
2022/12/15 07:45:07;;;;;;;14.03;5.90;;;-0.40;99.90;;;;;;5049194;28;20433;-76
2022/12/15 07:47:33;;;;;;;11.73;4.95;;;-0.50;99.90;;;;;;5050144;28;20425;-75
2022/12/15 07:49:59;;;;;;;12.50;6.03;;;-0.50;99.90;;;;;;5030975;28;20818;-75
2022/12/15 07:52:24;;;;;;;11.07;5.50;;;-0.40;99.90;;;;;;5049641;28;20509;-74
2022/12/15 07:54:50;;;;;;;13.30;5.83;;;-0.60;99.90;;;;;;5034625;28;20428;-76
2022/12/15 07:57:16;;;;;;;12.67;7.00;;;-0.30;99.90;;;;;;5014053;28;20417;-75
2022/12/15 07:59:42;;;;;;;10.75;6.00;;;-0.40;99.90;;;;;;5047503;28;20512;-76
2022/12/15 08:02:12;;;;;;;17.10;6.97;;;-0.20;99.90;;;;;;5049232;28;20429;-76
2022/12/15 08:04:38;;;;;;;14.32;5.90;;;-0.40;99.90;;;;;;5047215;28;20429;-74
2022/12/15 08:07:04;;;;;;;11.13;5.78;;;-0.50;99.90;;;;;;5049190;28;20420;-76
2022/12/15 08:09:30;;;;;;;12.20;6.70;;;-0.10;99.90;;;;;;5030587;28;20421;-75
2022/12/15 08:11:56;;;;;;;12.70;6.87;;;-0.20;99.90;;;;;;5042790;28;20973;-76
2022/12/15 08:14:22;;;;;;;11.95;6.85;;;-0.10;99.90;;;;;;5040170;28;20524;-76
2022/12/15 08:16:48;;;;;;;12.93;6.57;;;-0.30;99.90;;;;;;5031605;28;20504;-74
2022/12/15 08:19:14;;;;;;;11.82;5.53;;;-0.20;99.90;;;;;;5049886;28;21115;-76
2022/12/15 08:21:42;;;;;;;9.93;6.43;;;-0.20;99.90;;;;;;5047247;28;20479;-76
2022/12/15 08:24:08;;;;;;;12.27;6.63;;;0.10;99.90;;;;;;5046567;28;21313;-76
2022/12/15 08:26:37;;;;;;;10.02;6.65;;;0.00;99.90;;;;;;5027925;28;20441;-76
2022/12/15 08:29:04;;;;;;;15.82;7.53;;;0.10;99.90;;;;;;5046867;28;20517;-76
2022/12/15 08:31:31;;;;;;;12.88;6.50;;;0.00;99.90;;;;;;5043280;28;20429;-76
2022/12/15 08:34:01;;;;;;;9.60;6.57;;;0.10;99.90;;;;;;5048632;28;20433;-75
2022/12/15 08:36:27;;;;;;;10.38;6.40;;;-0.20;99.90;;;;;;5048724;28;20479;-76
2022/12/15 08:38:56;;;;;;;10.73;6.38;;;0.10;99.90;;;;;;5030199;28;20515;-76
2022/12/15 08:41:27;;;;;;;10.80;6.13;;;0.10;99.90;;;;;;5046989;28;20417;-76
2022/12/15 08:43:54;;;;;;;9.98;6.03;;;-0.20;99.90;;;;;;5045074;28;20521;-74
2022/12/15 08:46:25;;;;;;;11.77;5.60;;;0.10;99.90;;;;;;5047624;28;20483;-74
2022/12/15 08:48:51;;;;;;;11.65;6.75;;;0.00;99.90;;;;;;5018220;28;20433;-75
2022/12/15 08:51:18;;;;;;;14.27;7.60;;;0.20;99.90;;;;;;5047748;28;20433;-75
2022/12/15 08:53:44;;;;;;;14.23;7.10;;;0.40;99.90;;;;;;5048689;28;20417;-75
2022/12/15 08:56:16;;;;;;;15.65;6.55;;;0.20;99.90;;;;;;5029351;28;20472;-77
2022/12/15 08:58:42;;;;;;;9.20;6.40;;;0.40;99.90;;;;;;5046018;28;20432;-76
2022/12/15 09:01:12;;;;;;;10.70;6.40;;;0.40;99.90;;;;;;5028039;28;20425;-75
2022/12/15 09:03:38;;;;;;;10.68;6.53;;;0.40;99.90;;;;;;5047307;28;20472;-77
2022/12/15 09:06:06;;;;;;;11.35;5.80;;;0.30;99.90;;;;;;5044850;28;20437;-75
2022/12/15 09:08:32;;;;;;;10.55;6.80;;;0.10;99.90;;;;;;5047264;28;20435;-76
2022/12/15 09:10:58;;;;;;;12.18;6.32;;;0.10;99.90;;;;;;5043969;28;20442;-77
2022/12/15 09:13:24;;;;;;;12.95;6.35;;;0.20;99.90;;;;;;5044740;28;20482;-76
2022/12/15 09:15:57;;;;;;;11.30;6.32;;;0.30;99.90;;;;;;5044783;28;20894;-83
2022/12/15 09:18:23;;;;;;;11.85;6.07;;;0.30;99.90;;;;;;5047622;28;20415;-76
2022/12/15 09:20:49;;;;;;;11.83;6.07;;;0.10;99.90;;;;;;5048026;28;20413;-76
2022/12/15 09:23:14;;;;;;;13.20;7.13;;;0.30;99.90;;;;;;5043604;28;20424;-77
2022/12/15 09:25:40;;;;;;;13.57;7.53;;;0.30;99.90;;;;;;5047057;28;20428;-77
2022/12/15 09:28:05;;;;;;;12.80;7.57;;;0.50;99.90;;;;;;5028931;28;20780;-77
2022/12/15 09:30:31;;;;;;;9.93;7.03;;;0.40;99.90;;;;;;5021974;28;20448;-77
2022/12/15 09:32:57;;;;;;;13.02;6.88;;;0.60;99.90;;;;;;5022804;28;20434;-76
2022/12/15 09:35:24;;;;;;;14.10;7.40;;;0.50;99.90;;;;;;5048002;28;20421;-77
2022/12/15 09:37:50;;;;;;;12.63;7.35;;;0.70;99.90;;;;;;5026594;28;20927;-77
2022/12/15 09:40:16;;;;;;;18.00;8.60;;;0.70;99.90;;;;;;5030566;28;20413;-76
2022/12/15 09:42:50;;;;;;;13.73;7.70;;;0.80;99.90;;;;;;5047637;28;20419;-75
2022/12/15 09:45:25;;;;;;;13.40;7.95;;;0.60;99.90;;;;;;5030208;28;20444;-77
2022/12/15 09:47:57;;;;;;;12.27;7.70;;;0.80;99.90;;;;;;5030617;28;20429;-77
2022/12/15 09:50:35;;;;;;;15.20;7.90;;;0.80;99.90;;;;;;5042617;28;20827;-77
2022/12/15 09:53:02;;;;;;;11.60;7.70;;;1.20;99.90;;;;;;5042965;28;20421;-79
2022/12/15 09:55:34;;;;;;;13.40;8.32;;;1.00;99.90;;;;;;5030687;28;20785;-77
2022/12/15 09:58:16;;;;;;;17.00;7.60;;;1.00;99.90;;;;;;5047039;28;20867;-77
2022/12/15 10:00:54;;;;;;;12.07;7.70;;;1.30;99.90;;;;;;5046122;28;20425;-76
2022/12/15 10:03:35;;;;;;;11.98;7.05;;;1.30;99.90;;;;;;5029383;28;20471;-76
2022/12/15 10:06:00;;;;;;;10.13;6.07;;;1.30;99.90;;;;;;5047228;28;20927;-79
2022/12/15 10:08:33;;;;;;;10.00;6.70;;;1.20;99.90;;;;;;5029057;28;20497;-78
2022/12/15 10:11:03;;;;;;;15.68;6.95;;;1.30;99.90;;;;;;5044572;28;20799;-77
2022/12/15 10:13:51;;;;;;;10.18;5.95;;;1.30;99.90;;;;;;5037688;28;20411;-77
2022/12/15 10:16:21;;;;;;;13.77;6.25;;;1.40;99.90;;;;;;5037851;28;20979;-76
2022/12/15 10:19:10;;;;;;;9.80;6.07;;;1.50;99.90;;;;;;5043644;28;20421;-78
2022/12/15 10:21:36;;;;;;;9.23;5.70;;;1.50;99.90;;;;;;4980433;28;20577;-77
2022/12/15 10:24:19;;;;;;;11.50;5.65;;;1.50;99.90;;;;;;5029572;28;20416;-77
2022/12/15 10:27:05;;;;;;;9.03;6.33;;;1.60;99.90;;;;;;5048356;28;20458;-75
2022/12/15 10:29:42;;;;;;;8.90;5.22;;;1.60;99.90;;;;;;5011459;28;20510;-76
2022/12/15 10:32:21;;;;;;;7.78;5.15;;;1.60;99.90;;;;;;5041770;28;20428;-77
2022/12/15 10:34:47;;;;;;;12.23;6.78;;;1.60;99.90;;;;;;5052386;28;20931;-78
2022/12/15 10:37:18;;;;;;;11.35;5.90;;;1.70;99.90;;;;;;5022780;28;20464;-78
2022/12/15 10:39:47;;;;;;;8.65;4.95;;;1.80;99.90;;;;;;5053881;28;20394;-79
2022/12/15 10:42:26;;;;;;;12.53;5.40;;;1.70;99.90;;;;;;5053056;28;20448;-78
2022/12/15 10:44:57;;;;;;;10.38;5.22;;;1.80;99.90;;;;;;5041587;28;20457;-77
2022/12/15 10:47:30;;;;;;;11.68;6.05;;;1.90;99.90;;;;;;5045491;28;20409;-79
2022/12/15 10:50:21;;;;;;;10.57;6.05;;;2.20;99.90;;;;;;5052165;28;20437;-79
2022/12/15 10:52:47;;;;;;;10.90;5.07;;;2.30;99.90;;;;;;5035025;28;20422;-77
2022/12/15 10:55:40;;;;;;;8.20;5.15;;;2.40;99.90;;;;;;5033319;28;20429;-77
2022/12/15 10:58:21;;;;;;;10.70;5.05;;;2.30;99.90;;;;;;5034092;28;20429;-78
2022/12/15 11:01:03;;;;;;;9.55;5.63;;;2.50;99.90;;;;;;5014776;28;20780;-77
2022/12/15 11:03:34;;;;;;;9.20;4.40;;;2.50;99.90;;;;;;5051645;28;20413;-78
2022/12/15 11:06:00;;;;;;;9.23;4.63;;;2.40;99.90;;;;;;5049322;28;20483;-78
2022/12/15 11:08:28;;;;;;;15.37;5.50;;;2.40;99.90;;;;;;5034058;28;20413;-76
2022/12/15 11:14:04;;;;;;;12.25;5.13;;;2.50;99.90;;;;;;5040014;28;20427;-77
2022/12/15 11:16:30;;;;;;;8.82;4.38;;;2.60;99.90;;;;;;5046348;28;20426;-78
2022/12/15 11:19:23;;;;;;;10.40;4.53;;;2.60;99.90;;;;;;5051505;28;20412;-79
2022/12/15 11:21:55;;;;;;;11.60;4.70;;;2.60;99.90;;;;;;5034418;28;20471;-78
2022/12/15 11:24:34;;;;;;;7.50;3.97;;;2.70;99.90;;;;;;5033669;28;20433;-76
2022/12/15 11:27:16;;;;;;;10.63;5.18;;;2.70;99.90;;;;;;5041540;28;20428;-77
2022/12/15 11:29:55;;;;;;;12.02;4.50;;;2.70;99.90;;;;;;5050204;28;20405;-78
2022/12/15 11:32:27;;;;;;;8.90;4.38;;;2.60;99.90;;;;;;5015259;28;20806;-78
2022/12/15 11:34:54;;;;;;;8.65;4.30;;;2.70;99.90;;;;;;5050533;28;20432;-78
2022/12/15 11:37:31;;;;;;;13.10;4.97;;;2.70;99.90;;;;;;5050173;28;20429;-79
2022/12/15 11:40:10;;;;;;;11.30;4.35;;;2.80;99.90;;;;;;5032781;28;20922;-79
2022/12/15 11:42:51;;;;;;;9.27;4.60;;;2.80;99.90;;;;;;5030735;28;20421;-75
2022/12/15 11:45:25;;;;;;;20.92;5.97;;;2.80;99.90;;;;;;5046902;28;20425;-75
2022/12/15 11:48:02;;;;;;;10.05;5.28;;;2.80;99.90;;;;;;5045683;28;20436;-74
2022/12/15 11:50:49;;;;;;;9.98;4.88;;;2.80;99.90;;;;;;5032065;28;20420;-75
2022/12/15 11:53:27;;;;;;;12.48;5.95;;;2.80;99.90;;;;;;5028874;28;20421;-76
2022/12/15 11:56:01;;;;;;;9.07;5.15;;;2.90;99.90;;;;;;5029736;28;20425;-75
2022/12/15 11:58:48;;;;;;;10.23;5.30;;;2.80;99.90;;;;;;5047712;28;20414;-76
2022/12/15 12:01:31;;;;;;;11.43;5.10;;;2.90;99.90;;;;;;5050415;28;20516;-77
2022/12/15 12:04:13;;;;;;;14.20;6.72;;;3.00;99.90;;;;;;5016772;28;20498;-75
2022/12/15 12:06:54;;;;;;;13.57;5.57;;;3.00;99.90;;;;;;5021047;28;20465;-75
2022/12/15 12:09:32;;;;;;;10.80;4.63;;;3.00;99.90;;;;;;5041291;28;20835;-78
2022/12/15 12:12:15;;;;;;;12.03;4.13;;;3.10;99.90;;;;;;5025353;28;20865;-80
2022/12/15 12:15:11;;;;;;;9.60;4.13;;;3.00;99.90;;;;;;5046373;28;20474;-75
2022/12/15 12:17:57;;;;;;;12.45;5.07;;;3.20;99.90;;;;;;5045198;28;20511;-76
2022/12/15 12:21:01;;;;;;;10.23;4.28;;;3.10;99.90;;;;;;5031449;28;20413;-75
2022/12/15 12:23:37;;;;;;;12.07;4.57;;;3.20;99.90;;;;;;5048607;28;20417;-74
2022/12/15 12:26:21;;;;;;;11.98;4.22;;;3.20;99.90;;;;;;5031071;28;20472;-75
2022/12/15 12:28:58;;;;;;;10.97;4.50;;;3.30;99.90;;;;;;5040224;28;20496;-76
2022/12/15 12:31:48;;;;;;;14.55;5.10;;;3.20;99.90;;;;;;5025041;28;20523;-76
2022/12/15 12:34:37;;;;;;;11.13;4.47;;;3.20;99.90;;;;;;5031510;28;20421;-75
2022/12/15 12:37:22;;;;;;;9.43;4.82;;;3.30;99.90;;;;;;5048119;28;20516;-75
2022/12/15 12:39:48;;;;;;;13.32;4.60;;;3.10;99.90;;;;;;5049501;28;20414;-75
2022/12/15 12:42:34;;;;;;;14.10;4.38;;;3.10;99.90;;;;;;5049659;28;20418;-75
2022/12/15 12:45:01;;;;;;;10.80;4.82;;;3.20;99.90;;;;;;5048689;28;20947;-75
2022/12/15 12:47:35;;;;;;;11.52;4.78;;;3.20;99.90;;;;;;5049492;28;20408;-75
2022/12/15 12:50:18;;;;;;;11.75;4.78;;;3.30;99.90;;;;;;5049406;28;20772;-77
2022/12/15 12:52:53;;;;;;;14.48;5.00;;;3.20;99.90;;;;;;5031416;28;20410;-75
2022/12/15 12:55:36;;;;;;;13.07;4.68;;;3.20;99.90;;;;;;5048531;28;20413;-75
2022/12/15 12:58:02;;;;;;;11.32;4.35;;;3.30;99.90;;;;;;5017609;28;20429;-76
2022/12/15 13:00:30;;;;;;;10.32;4.30;;;3.40;99.90;;;;;;5046899;28;20426;-76
2022/12/15 13:03:18;;;;;;;17.88;5.85;;;3.30;99.90;;;;;;5030210;28;20421;-76
2022/12/15 13:05:46;;;;;;;10.85;4.47;;;3.30;99.90;;;;;;5048056;28;20508;-75
2022/12/15 13:08:12;;;;;;;14.57;5.38;;;3.30;99.90;;;;;;5030763;28;20409;-76
2022/12/15 13:10:46;;;;;;;11.85;4.43;;;3.30;99.90;;;;;;5027212;28;20448;-76
2022/12/15 13:13:17;;;;;;;11.05;4.47;;;3.30;99.90;;;;;;5047698;28;20772;-75
2022/12/15 13:15:46;;;;;;;10.02;4.03;;;3.30;99.90;;;;;;5048780;28;20733;-74
2022/12/15 13:18:16;;;;;;;12.50;5.30;;;3.30;99.90;;;;;;5030551;28;20499;-76
2022/12/15 13:20:44;;;;;;;9.60;4.80;;;3.20;99.90;;;;;;5048263;28;20420;-75
2022/12/15 13:23:19;;;;;;;14.32;5.20;;;3.30;99.90;;;;;;5030813;28;20413;-75
2022/12/15 13:25:56;;;;;;;10.15;5.25;;;3.30;99.90;;;;;;5047116;28;20937;-76
2022/12/15 13:28:29;;;;;;;13.35;5.50;;;3.30;99.90;;;;;;5012798;28;20429;-75
2022/12/15 13:31:17;;;;;;;9.70;4.93;;;3.20;99.90;;;;;;5024206;28;20417;-76
2022/12/15 13:33:50;;;;;;;12.03;4.73;;;3.10;99.90;;;;;;5048866;28;20417;-75
2022/12/15 13:36:40;;;;;;;10.23;4.90;;;3.00;99.90;;;;;;5030772;28;20412;-75
2022/12/15 13:39:15;;;;;;;11.15;4.88;;;2.90;99.90;;;;;;5013987;28;20441;-75
2022/12/15 13:41:43;;;;;;;10.80;4.83;;;2.90;99.90;;;;;;5022017;28;20435;-75
2022/12/15 13:44:17;;;;;;;12.07;4.93;;;2.80;99.90;;;;;;5047997;28;20444;-75
2022/12/15 13:46:45;;;;;;;13.25;5.60;;;2.70;99.90;;;;;;5049148;28;20428;-74
2022/12/15 13:49:15;;;;;;;8.95;4.93;;;2.80;99.90;;;;;;5030267;28;20780;-76
2022/12/15 13:51:43;;;;;;;8.73;4.95;;;2.70;99.90;;;;;;5048384;28;20492;-76
2022/12/15 13:54:22;;;;;;;11.05;5.45;;;2.60;99.90;;;;;;5031517;28;20409;-76
2022/12/15 13:57:10;;;;;;;14.85;6.40;;;2.60;99.90;;;;;;5047257;28;20465;-77
2022/12/15 13:59:44;;;;;;;10.25;5.38;;;2.60;99.90;;;;;;5023137;28;20405;-75
2022/12/15 14:02:28;;;;;;;14.80;5.60;;;2.50;99.90;;;;;;5028467;28;20839;-75
2022/12/15 14:05:11;;;;;;;10.65;5.20;;;2.50;99.90;;;;;;5031087;28;20419;-76
2022/12/15 14:07:42;;;;;;;11.07;4.85;;;2.40;99.90;;;;;;5041423;28;20415;-76
2022/12/15 14:10:20;;;;;;;16.05;6.28;;;2.60;99.90;;;;;;5049033;28;20072;-76
2022/12/15 14:12:48;;;;;;;15.95;6.72;;;2.50;99.90;;;;;;5031586;28;20041;-76
2022/12/15 14:15:16;;;;;;;9.30;5.50;;;2.50;99.90;;;;;;5029176;28;20103;-76
2022/12/15 14:17:48;;;;;;;9.25;5.03;;;2.50;99.90;;;;;;5048645;28;20450;-75
2022/12/15 14:20:20;;;;;;;11.98;6.15;;;2.50;99.90;;;;;;5048910;28;20044;-77
2022/12/15 14:22:45;;;;;;;10.68;5.22;;;2.50;99.90;;;;;;5030958;28;20126;-77
2022/12/15 14:25:19;;;;;;;8.60;4.40;;;2.40;99.90;;;;;;5048405;28;20084;-76
2022/12/15 14:27:45;;;;;;;9.00;4.13;;;2.40;99.90;;;;;;5012041;28;20076;-79
2022/12/15 14:30:21;;;;;;;12.40;4.82;;;2.30;99.90;;;;;;5045600;28;20479;-75
2022/12/15 14:33:10;;;;;;;6.88;4.40;;;2.40;99.90;;;;;;5010034;28;20134;-75
2022/12/15 14:35:43;;;;;;;14.68;4.97;;;2.30;99.90;;;;;;5028634;28;20052;-75
2022/12/15 14:38:51;;;;;;;12.23;5.90;;;2.30;99.90;;;;;;5028836;28;20041;-75
2022/12/15 14:41:29;;;;;;;18.05;6.28;;;2.30;99.90;;;;;;5029856;28;20056;-75
2022/12/15 14:44:04;;;;;;;11.25;5.03;;;2.40;99.90;;;;;;5046991;28;20037;-75
2022/12/15 14:46:30;;;;;;;10.95;4.88;;;2.40;99.90;;;;;;5048000;28;20373;-75
2022/12/15 14:48:57;;;;;;;9.43;4.20;;;2.40;99.90;;;;;;5048082;28;20048;-75
2022/12/15 14:51:25;;;;;;;10.15;5.20;;;2.40;99.90;;;;;;5048205;28;20056;-75
2022/12/15 14:53:53;;;;;;;14.70;5.28;;;2.40;99.90;;;;;;5046423;28;20473;-75
2022/12/15 14:56:18;;;;;;;13.52;5.30;;;2.30;99.90;;;;;;5040947;28;20122;-77
2022/12/15 14:58:46;;;;;;;14.73;5.57;;;2.40;99.90;;;;;;5035764;28;20092;-76
2022/12/15 15:01:32;;;;;;;17.90;4.57;;;2.40;99.90;;;;;;5060298;28;20044;-75
2022/12/15 15:04:03;;;;;;;17.70;7.82;;;2.40;99.90;;;;;;5044736;28;20098;-75
2022/12/15 15:06:39;;;;;;;14.43;6.93;;;2.30;99.90;;;;;;5047491;28;20049;-76
2022/12/15 15:09:23;;;;;;;11.98;6.07;;;2.10;99.90;;;;;;5046593;28;20933;-77
2022/12/15 15:11:54;;;;;;;16.73;7.30;;;2.20;99.90;;;;;;5044107;28;20425;-77
2022/12/15 15:14:25;;;;;;;14.82;7.63;;;1.90;99.90;;;;;;5047368;28;20513;-76
2022/12/15 15:17:02;;;;;;;14.23;6.23;;;1.90;99.90;;;;;;5048991;28;20498;-77
2022/12/15 15:19:29;;;;;;;10.77;6.78;;;1.90;99.90;;;;;;5049306;28;20417;-77
2022/12/15 15:21:54;;;;;;;9.90;6.20;;;1.80;99.90;;;;;;5050095;28;20421;-77
2022/12/15 15:24:28;;;;;;;16.97;6.60;;;1.70;99.90;;;;;;5049830;28;20429;-77
2022/12/15 15:26:54;;;;;;;13.80;6.78;;;1.90;99.90;;;;;;5026988;28;20811;-77
2022/12/15 15:29:39;;;;;;;13.03;7.47;;;1.80;99.90;;;;;;5049607;28;20401;-77
2022/12/15 15:32:17;;;;;;;15.30;7.63;;;1.80;99.90;;;;;;5031933;28;20833;-76
2022/12/15 15:34:46;;;;;;;12.13;7.30;;;1.80;99.90;;;;;;5049942;28;20460;-77
2022/12/15 15:37:23;;;;;;;12.73;7.15;;;1.70;99.90;;;;;;5027716;28;20445;-79
2022/12/15 15:39:51;;;;;;;10.43;6.80;;;1.90;99.90;;;;;;5045200;28;20413;-78